Time;durP1;ratioP1;P1;durP2;ratioP2;P2;SDS_P1;SDS_P2;PMS_P1;PMS_P2;Temp;Humidity;BMP_temperature;BMP_pressure;BME280_temperature;BME280_humidity;BME280_pressure;Samples;Min_cycle;Max_cycle;Signal;HPM_P1;HPM_P2
2021/10/12 00:02:24;;;;;;;3.58;1.12;;;;;;;19.44;67.09;100728.19;144994;565;4572;-79
2021/10/12 00:04:51;;;;;;;1.95;1.40;;;;;;;19.43;66.82;100726.44;144992;563;6002;-78
2021/10/12 00:07:19;;;;;;;3.75;1.48;;;;;;;19.46;66.56;100717.66;144992;667;6002;-79
2021/10/12 00:09:45;;;;;;;2.25;1.35;;;;;;;19.48;66.44;100722.00;144992;640;6002;-80
2021/10/12 00:12:12;;;;;;;2.58;1.40;;;;;;;19.53;66.40;100708.81;144992;633;6002;-78
2021/10/12 00:14:38;;;;;;;2.67;1.42;;;;;;;19.55;66.46;100707.03;144992;589;6002;-79
2021/10/12 00:17:05;;;;;;;3.50;1.42;;;;;;;19.51;66.94;100697.41;144992;566;6002;-79
2021/10/12 00:19:34;;;;;;;2.78;1.75;;;;;;;19.45;66.65;100700.97;144992;646;6002;-80
2021/10/12 00:22:02;;;;;;;5.05;1.45;;;;;;;19.44;66.27;100696.59;144992;616;6002;-79
2021/10/12 00:24:28;;;;;;;1.98;1.05;;;;;;;19.36;66.74;100688.75;144992;742;6002;-78
2021/10/12 00:26:55;;;;;;;1.37;0.98;;;;;;;19.32;66.53;100686.16;144992;613;6002;-78
2021/10/12 00:29:21;;;;;;;3.30;1.30;;;;;;;19.28;66.70;100684.41;144992;633;6002;-78
2021/10/12 00:31:48;;;;;;;2.28;1.30;;;;;;;19.26;66.62;100681.78;144991;603;6002;-78
2021/10/12 00:34:14;;;;;;;6.30;1.30;;;;;;;19.25;66.70;100679.16;144992;688;6002;-78
2021/10/12 00:36:41;;;;;;;4.75;1.23;;;;;;;19.25;66.13;100681.78;144992;635;6002;-78
2021/10/12 00:39:07;;;;;;;1.98;1.17;;;;;;;19.24;66.62;100672.16;144992;632;6003;-77
2021/10/12 00:41:34;;;;;;;4.68;1.40;;;;;;;19.25;66.50;100671.25;144992;614;6002;-78
2021/10/12 00:44:00;;;;;;;1.48;1.20;;;;;;;19.26;65.95;100666.00;144992;565;6002;-77
2021/10/12 00:46:27;;;;;;;3.55;1.50;;;;;;;19.25;66.02;100664.28;144992;564;6002;-77
2021/10/12 00:48:56;;;;;;;4.57;1.60;;;;;;;19.26;66.25;100652.84;144992;576;6002;-77
2021/10/12 00:51:22;;;;;;;3.08;2.00;;;;;;;19.26;65.64;100651.97;144992;576;6002;-79
2021/10/12 00:53:49;;;;;;;4.12;2.10;;;;;;;19.26;65.50;100654.59;144992;630;6002;-78
2021/10/12 00:56:15;;;;;;;5.05;1.80;;;;;;;19.25;65.64;100655.47;144992;630;6002;-76
2021/10/12 00:58:42;;;;;;;2.85;1.92;;;;;;;19.24;66.06;100651.97;144992;617;6002;-77
2021/10/12 01:01:08;;;;;;;2.78;1.62;;;;;;;19.21;65.51;100644.97;144992;580;6002;-77
2021/10/12 01:03:34;;;;;;;3.00;1.60;;;;;;;19.21;65.93;100638.84;144992;637;6002;-79
2021/10/12 01:06:01;;;;;;;5.60;1.80;;;;;;;19.19;65.43;100630.97;144992;569;6002;-79
2021/10/12 01:08:27;;;;;;;4.93;2.05;;;;;;;19.17;65.77;100630.09;144991;622;6002;-77
2021/10/12 01:10:54;;;;;;;2.10;1.50;;;;;;;19.16;65.58;100630.13;144992;571;6002;-77
2021/10/12 01:13:20;;;;;;;2.70;1.60;;;;;;;19.14;65.97;100630.13;144992;658;6002;-77
2021/10/12 01:15:47;;;;;;;2.70;1.37;;;;;;;19.15;65.91;100631.00;144992;564;6002;-77
2021/10/12 01:18:14;;;;;;;2.28;1.55;;;;;;;19.12;65.65;100631.91;144992;564;6002;-79
2021/10/12 01:20:42;;;;;;;2.28;1.50;;;;;;;19.11;66.36;100626.66;144992;557;6002;-77
2021/10/12 01:23:09;;;;;;;3.05;1.52;;;;;;;19.10;65.89;100628.38;144992;577;6002;-78
2021/10/12 01:25:36;;;;;;;3.58;1.42;;;;;;;19.10;65.76;100617.88;144992;803;6002;-77
2021/10/12 01:28:03;;;;;;;1.98;1.17;;;;;;;19.09;65.84;100612.63;144992;577;6002;-79
2021/10/12 01:30:30;;;;;;;2.17;1.30;;;;;;;19.08;66.44;100616.16;144992;663;6002;-76
2021/10/12 01:32:57;;;;;;;6.60;1.30;;;;;;;19.08;65.99;100614.38;144992;638;6002;-76
2021/10/12 01:35:24;;;;;;;2.33;1.35;;;;;;;19.03;66.33;100610.91;144992;587;6002;-77
2021/10/12 01:37:50;;;;;;;2.85;1.33;;;;;;;19.02;66.00;100609.16;144992;560;6002;-77
2021/10/12 01:40:17;;;;;;;4.80;1.27;;;;;;;19.02;66.15;100606.53;144992;645;6002;-77
2021/10/12 01:42:45;;;;;;;1.75;1.10;;;;;;;19.01;66.34;100608.28;144992;564;6002;-77
2021/10/12 01:45:12;;;;;;;4.18;1.17;;;;;;;19.02;66.23;100606.53;144992;593;6002;-78
2021/10/12 01:47:39;;;;;;;1.45;1.00;;;;;;;19.01;66.14;100604.81;144992;567;6002;-77
2021/10/12 01:50:08;;;;;;;4.22;1.30;;;;;;;19.01;65.78;100604.81;144991;609;6002;-77
2021/10/12 01:52:34;;;;;;;3.45;1.12;;;;;;;18.99;65.70;100599.56;144992;568;6002;-76
2021/10/12 01:55:01;;;;;;;2.72;1.37;;;;;;;18.97;65.19;100598.66;144992;577;6002;-77
2021/10/12 01:57:29;;;;;;;2.97;1.20;;;;;;;18.96;65.78;100610.09;144992;583;6002;-77
2021/10/12 01:59:56;;;;;;;1.87;0.90;;;;;;;18.95;65.35;100607.47;144992;654;6002;-78
2021/10/12 02:02:22;;;;;;;2.25;0.90;;;;;;;18.94;65.49;100614.47;144992;798;6002;-78
2021/10/12 02:04:49;;;;;;;3.05;1.00;;;;;;;18.94;64.65;100617.09;144992;588;6002;-79
2021/10/12 02:07:15;;;;;;;3.58;1.10;;;;;;;18.91;64.60;100611.84;144992;643;6002;-76
2021/10/12 02:09:42;;;;;;;2.05;1.40;;;;;;;18.90;64.64;100614.50;144992;622;6002;-77
2021/10/12 02:12:09;;;;;;;2.42;1.17;;;;;;;18.89;64.65;100616.25;144992;604;6002;-78
2021/10/12 02:14:35;;;;;;;3.12;1.23;;;;;;;18.90;65.05;100617.13;144992;584;6002;-79
2021/10/12 02:17:02;;;;;;;4.10;1.20;;;;;;;18.90;64.53;100617.13;144992;583;6002;-77
2021/10/12 02:19:29;;;;;;;2.78;1.60;;;;;;;18.89;64.76;100616.25;144992;565;6002;-78
2021/10/12 02:21:55;;;;;;;3.83;1.20;;;;;;;18.90;64.50;100615.38;144992;642;6002;-78
2021/10/12 02:24:22;;;;;;;3.72;1.30;;;;;;;18.90;64.26;100609.22;144992;621;6002;-78
2021/10/12 02:26:48;;;;;;;1.45;1.20;;;;;;;18.90;64.29;100615.38;144992;579;6002;-78
2021/10/12 02:29:15;;;;;;;2.55;1.20;;;;;;;18.90;64.20;100619.75;144992;598;6002;-78
2021/10/12 02:31:42;;;;;;;3.20;1.33;;;;;;;18.90;64.09;100625.91;144992;569;6002;-77
2021/10/12 02:34:09;;;;;;;2.55;1.27;;;;;;;18.88;63.92;100637.31;144992;573;6002;-78
2021/10/12 02:36:36;;;;;;;2.05;1.25;;;;;;;18.85;64.41;100651.38;144992;637;6002;-78
2021/10/12 02:39:02;;;;;;;3.30;1.25;;;;;;;18.85;63.97;100657.50;144992;603;6002;-80
2021/10/12 02:41:29;;;;;;;1.90;1.40;;;;;;;18.84;64.65;100658.34;144992;566;6002;-79
2021/10/12 02:43:56;;;;;;;3.05;1.37;;;;;;;18.76;64.03;100662.75;144992;640;6002;-78
2021/10/12 02:46:22;;;;;;;4.55;1.90;;;;;;;18.74;64.26;100659.28;144992;586;6002;-77
2021/10/12 02:48:49;;;;;;;6.28;2.40;;;;;;;18.71;65.05;100659.28;144992;593;6002;-80
2021/10/12 02:51:16;;;;;;;6.57;2.92;;;;;;;18.72;65.07;100660.16;144992;577;6002;-79
2021/10/12 02:53:42;;;;;;;8.00;3.53;;;;;;;18.71;64.89;100667.16;144992;590;6002;-79
2021/10/12 02:56:09;;;;;;;7.22;3.92;;;;;;;18.73;64.67;100673.28;144992;650;6002;-78
2021/10/12 02:58:36;;;;;;;9.02;3.55;;;;;;;18.73;64.68;100680.31;144992;632;6002;-76
2021/10/12 03:01:03;;;;;;;7.47;4.10;;;;;;;18.74;65.15;100689.94;144992;621;6002;-75
2021/10/12 03:03:30;;;;;;;8.77;3.78;;;;;;;18.77;64.90;100689.91;144992;632;6002;-77
2021/10/12 03:05:56;;;;;;;7.78;3.70;;;;;;;18.78;65.34;100681.16;144992;589;6002;-77
2021/10/12 03:08:23;;;;;;;6.03;3.70;;;;;;;18.80;65.29;100684.66;144992;667;6002;-77
2021/10/12 03:10:50;;;;;;;5.82;3.75;;;;;;;18.79;64.72;100689.03;144992;595;6002;-78
2021/10/12 03:13:17;;;;;;;5.37;3.15;;;;;;;18.79;65.08;100691.66;144992;604;6002;-78
2021/10/12 03:15:43;;;;;;;4.72;2.40;;;;;;;18.76;65.55;100689.06;144991;666;6002;-77
2021/10/12 03:18:13;;;;;;;5.10;2.97;;;;;;;18.71;65.04;100692.56;144992;563;6002;-78
2021/10/12 03:20:40;;;;;;;6.28;2.78;;;;;;;18.65;65.49;100709.25;144992;700;6002;-75
2021/10/12 03:23:07;;;;;;;5.40;2.58;;;;;;;18.64;65.49;100718.00;144992;593;6002;-78
2021/10/12 03:25:34;;;;;;;3.97;2.35;;;;;;;18.60;65.37;100716.28;144992;563;6002;-78
2021/10/12 03:28:01;;;;;;;6.68;2.50;;;;;;;18.53;65.29;100711.91;144992;566;6002;-78
2021/10/12 03:30:27;;;;;;;5.35;2.30;;;;;;;18.52;65.25;100710.16;144992;652;6002;-78
2021/10/12 03:32:54;;;;;;;5.05;2.45;;;;;;;18.50;65.34;100704.94;144992;627;6002;-79
2021/10/12 03:35:28;;;;;;;5.20;2.20;;;;;;;18.52;65.73;100704.91;144992;569;6002;-78
2021/10/12 03:37:56;;;;;;;;;;;;;;;18.53;65.95;100712.78;144997;911;6002;-79
2021/10/12 03:40:23;;;;;;;4.55;2.25;;;;;;;18.56;65.89;100717.16;144997;569;6002;-74
2021/10/12 03:42:49;;;;;;;3.62;1.90;;;;;;;18.58;65.88;100715.41;144992;594;6002;-77
2021/10/12 03:45:16;;;;;;;3.53;1.80;;;;;;;18.62;66.36;100725.03;144992;612;6002;-78
2021/10/12 03:47:42;;;;;;;4.18;1.70;;;;;;;18.65;66.50;100725.91;144992;580;6002;-80
2021/10/12 03:50:09;;;;;;;2.70;1.65;;;;;;;18.68;66.00;100725.03;144992;594;6002;-77
2021/10/12 03:52:36;;;;;;;2.50;1.67;;;;;;;18.68;66.02;100719.75;144992;596;6002;-78
2021/10/12 03:55:04;;;;;;;2.87;1.23;;;;;;;18.66;66.30;100718.91;144992;637;6002;-78
2021/10/12 03:57:30;;;;;;;2.33;1.50;;;;;;;18.64;66.21;100712.75;144992;565;6002;-78
2021/10/12 03:59:57;;;;;;;1.75;1.52;;;;;;;18.57;66.67;100709.28;144992;583;6002;-80
2021/10/12 04:02:23;;;;;;;3.05;1.67;;;;;;;18.53;66.54;100715.41;144992;569;6002;-78
2021/10/12 04:04:50;;;;;;;2.20;1.37;;;;;;;18.51;66.78;100724.22;144992;613;6002;-78
2021/10/12 04:07:17;;;;;;;4.37;1.37;;;;;;;18.44;66.25;100718.09;144992;671;6002;-78
2021/10/12 04:09:43;;;;;;;3.72;1.70;;;;;;;18.42;66.75;100720.72;144992;600;6002;-77
2021/10/12 04:12:09;;;;;;;2.75;1.58;;;;;;;18.43;66.67;100722.47;144992;571;6002;-78
2021/10/12 04:14:36;;;;;;;3.12;1.50;;;;;;;18.42;66.41;100711.94;144992;587;6002;-78
2021/10/12 04:17:03;;;;;;;3.50;1.60;;;;;;;18.41;66.59;100700.56;144991;587;6002;-78
2021/10/12 04:19:29;;;;;;;2.60;1.52;;;;;;;18.40;66.72;100701.44;144992;570;6002;-78
2021/10/12 04:21:56;;;;;;;2.20;1.50;;;;;;;18.38;66.51;100702.34;144992;618;6002;-78
2021/10/12 04:24:22;;;;;;;2.40;1.42;;;;;;;18.33;66.54;100694.47;144992;567;6002;-74
2021/10/12 04:26:49;;;;;;;1.73;1.60;;;;;;;18.35;66.84;100690.06;144992;607;6002;-79
2021/10/12 04:29:15;;;;;;;2.30;1.50;;;;;;;18.35;66.78;100692.69;144992;659;6002;-80
2021/10/12 04:31:41;;;;;;;2.65;1.60;;;;;;;18.35;66.93;100682.19;144992;593;6002;-80
2021/10/12 04:34:09;;;;;;;2.67;1.48;;;;;;;18.34;66.92;100679.56;144992;683;6002;-80
2021/10/12 04:36:35;;;;;;;2.42;1.70;;;;;;;18.31;67.03;100676.06;144992;606;6002;-79
2021/10/12 04:39:05;;;;;;;3.20;1.60;;;;;;;18.30;67.06;100666.44;144992;577;6002;-80
2021/10/12 04:41:33;;;;;;;3.15;1.87;;;;;;;18.29;67.24;100664.69;144992;607;6002;-79
2021/10/12 04:44:01;;;;;;;4.10;1.85;;;;;;;18.29;67.34;100658.56;144992;593;6002;-80
2021/10/12 04:46:28;;;;;;;2.42;1.60;;;;;;;18.28;66.76;100648.94;144992;634;6002;-81
2021/10/12 04:48:55;;;;;;;3.25;1.70;;;;;;;18.28;67.36;100648.94;144991;583;6002;-80
2021/10/12 04:51:21;;;;;;;2.35;1.52;;;;;;;18.29;67.28;100645.41;144992;595;6002;-80
2021/10/12 04:53:48;;;;;;;3.03;1.90;;;;;;;18.28;67.09;100633.19;144992;600;6002;-79
2021/10/12 04:56:14;;;;;;;4.05;2.12;;;;;;;18.28;67.27;100627.91;144992;577;6002;-79
2021/10/12 04:58:41;;;;;;;2.47;2.00;;;;;;;18.25;67.50;100618.28;144992;672;6003;-80
2021/10/12 05:01:07;;;;;;;3.12;1.95;;;;;;;18.24;67.38;100600.75;144992;629;6002;-79
2021/10/12 05:03:34;;;;;;;2.28;1.80;;;;;;;18.25;67.42;100613.03;144992;582;6002;-81
2021/10/12 05:06:01;;;;;;;2.75;1.90;;;;;;;18.26;67.32;100606.00;144992;583;6003;-80
2021/10/12 05:08:28;;;;;;;3.45;1.90;;;;;;;18.26;67.83;100600.75;144992;612;6002;-80
2021/10/12 05:10:55;;;;;;;4.03;1.80;;;;;;;18.25;67.64;100601.66;144992;569;6002;-80
2021/10/12 05:13:22;;;;;;;1.92;1.30;;;;;;;18.23;67.18;100598.12;144991;674;6002;-81
2021/10/12 05:15:49;;;;;;;2.60;1.50;;;;;;;18.22;67.30;100588.53;144992;580;6002;-79
2021/10/12 05:18:24;;;;;;;2.97;1.62;;;;;;;18.20;67.17;100585.00;144992;569;6002;-78
2021/10/12 05:20:51;;;;;;;2.53;1.90;;;;;;;18.19;67.63;100586.78;144992;576;6002;-80
2021/10/12 05:23:17;;;;;;;2.75;2.22;;;;;;;18.18;67.20;100571.88;144992;607;6002;-79
2021/10/12 05:25:48;;;;;;;2.47;1.80;;;;;;;18.18;67.29;100571.00;144992;574;6002;-80
2021/10/12 05:28:16;;;;;;;3.15;2.08;;;;;;;18.13;67.34;100566.66;144992;630;6002;-79
2021/10/12 05:30:44;;;;;;;3.35;2.03;;;;;;;18.09;67.43;100575.44;144992;602;6011;-78
2021/10/12 05:33:15;;;;;;;3.25;2.40;;;;;;;18.07;67.76;100566.69;144992;592;6002;-81
2021/10/12 05:35:43;;;;;;;4.20;2.33;;;;;;;18.07;67.68;100571.03;144992;590;6002;-80
2021/10/12 05:38:09;;;;;;;3.62;2.50;;;;;;;18.06;67.55;100567.56;144992;604;6002;-80
2021/10/12 05:40:36;;;;;;;2.75;2.30;;;;;;;18.04;67.76;100552.66;144992;607;6002;-80
2021/10/12 05:43:02;;;;;;;4.72;2.35;;;;;;;18.05;68.09;100551.81;144992;602;6002;-81
2021/10/12 05:45:29;;;;;;;2.97;2.20;;;;;;;18.03;67.91;100570.19;144992;575;6002;-80
2021/10/12 05:47:55;;;;;;;3.78;2.47;;;;;;;18.04;68.09;100582.47;144992;612;6002;-80
2021/10/12 05:50:22;;;;;;;4.53;2.20;;;;;;;18.04;67.89;100581.56;144991;601;6002;-80
2021/10/12 05:52:59;;;;;;;5.68;2.97;;;;;;;18.07;68.03;100579.81;144992;596;6002;-81
2021/10/12 05:55:46;;;;;;;5.85;3.47;;;;;;;18.09;68.46;100574.56;144992;569;6002;-81
2021/10/12 05:58:14;;;;;;;5.45;4.10;;;;;;;18.09;68.36;100570.19;144992;600;6003;-82
2021/10/12 06:00:41;;;;;;;5.12;3.50;;;;;;;18.15;68.49;100581.53;144992;564;6002;-78
2021/10/12 06:03:08;;;;;;;3.58;3.05;;;;;;;18.20;68.41;100578.03;144992;569;6002;-78
2021/10/12 06:05:35;;;;;;;6.70;3.33;;;;;;;18.26;68.27;100577.09;144992;610;6003;-81
2021/10/12 06:08:02;;;;;;;5.53;3.67;;;;;;;18.27;68.35;100563.97;144992;587;6002;-79
2021/10/12 06:10:29;;;;;;;4.40;2.97;;;;;;;18.26;68.19;100561.34;144992;563;6002;-79
2021/10/12 06:12:56;;;;;;;3.58;2.50;;;;;;;18.21;68.26;100555.25;144992;569;6002;-79
2021/10/12 06:15:22;;;;;;;6.28;3.03;;;;;;;18.21;68.58;100548.22;144992;585;6002;-81
2021/10/12 06:17:49;;;;;;;4.22;3.03;;;;;;;18.25;68.52;100544.72;144992;621;6002;-79
2021/10/12 06:20:15;;;;;;;4.78;2.80;;;;;;;18.29;68.29;100546.47;144993;610;6002;-80
2021/10/12 06:22:42;;;;;;;5.87;2.65;;;;;;;18.34;68.23;100553.44;144993;575;6002;-80
2021/10/12 06:25:08;;;;;;;5.97;4.95;;;;;;;18.39;68.11;100549.91;144993;583;6002;-80
2021/10/12 06:27:35;;;;;;;16.15;11.88;;;;;;;18.43;67.89;100548.13;144993;563;6002;-81
2021/10/12 06:30:02;;;;;;;11.75;8.73;;;;;;;18.49;67.82;100551.59;144993;566;6002;-82
2021/10/12 06:32:28;;;;;;;7.87;6.60;;;;;;;18.56;68.02;100548.94;144993;559;6002;-80
2021/10/12 06:34:55;;;;;;;6.12;5.28;;;;;;;18.61;68.03;100549.78;144993;566;6002;-79
2021/10/12 06:37:21;;;;;;;9.40;5.25;;;;;;;18.63;68.27;100553.28;144993;580;6002;-80
2021/10/12 06:39:48;;;;;;;15.18;12.10;;;;;;;18.70;67.44;100551.50;144993;585;6002;-79
2021/10/12 06:42:15;;;;;;;18.15;12.30;;;;;;;18.72;67.62;100554.97;144992;571;6002;-79
2021/10/12 06:44:41;;;;;;;11.10;6.65;;;;;;;18.78;67.46;100558.44;144993;608;6002;-80
2021/10/12 06:47:07;;;;;;;12.95;9.55;;;;;;;18.87;67.27;100560.19;144993;585;6002;-80
2021/10/12 06:49:34;;;;;;;19.20;14.95;;;;;;;18.98;67.12;100565.38;144992;569;6002;-80
2021/10/12 06:52:00;;;;;;;12.75;9.65;;;;;;;19.19;67.13;100564.31;144992;564;6002;-77
2021/10/12 06:54:27;;;;;;;11.02;8.95;;;;;;;19.45;67.58;100564.06;144992;598;6002;-77
2021/10/12 06:56:57;;;;;;;17.67;14.40;;;;;;;19.75;67.32;100573.44;144992;563;6002;-79
2021/10/12 06:59:24;;;;;;;11.85;9.50;;;;;;;20.06;67.28;100575.78;144992;629;6002;-79
2021/10/12 07:01:52;;;;;;;7.20;5.50;;;;;;;20.28;66.51;100589.56;144991;688;6002;-80
2021/10/12 07:04:22;;;;;;;5.70;4.30;;;;;;;20.45;66.20;100591.97;144993;647;6002;-81
2021/10/12 07:06:48;;;;;;;5.30;3.00;;;;;;;20.58;65.75;100600.59;144993;591;6002;-75
2021/10/12 07:09:16;;;;;;;5.07;2.17;;;;;;;20.62;65.10;100601.44;144992;654;6002;-80
2021/10/12 07:11:43;;;;;;;2.67;2.17;;;;;;;20.57;64.98;100603.25;144993;624;6002;-78
2021/10/12 07:14:11;;;;;;;4.75;3.30;;;;;;;20.53;65.22;100604.19;144993;688;6002;-78
2021/10/12 07:16:38;;;;;;;8.00;6.22;;;;;;;20.52;65.09;100603.34;144993;586;6002;-80
2021/10/12 07:19:05;;;;;;;8.60;6.28;;;;;;;20.46;65.45;100606.06;144993;622;6002;-80
2021/10/12 07:21:32;;;;;;;9.50;5.62;;;;;;;20.47;65.72;100605.12;144993;582;6002;-77
2021/10/12 07:24:00;;;;;;;5.82;3.05;;;;;;;20.48;65.13;100615.66;144993;667;6002;-77
2021/10/12 07:26:27;;;;;;;7.82;5.00;;;;;;;20.51;65.28;100622.66;144993;592;6002;-76
2021/10/12 07:28:58;;;;;;;11.35;7.25;;;;;;;20.52;65.07;100620.91;144993;692;6002;-79
2021/10/12 07:31:26;;;;;;;10.27;7.70;;;;;;;20.45;64.79;100617.47;144993;592;6002;-78
2021/10/12 07:33:54;;;;;;;9.75;6.47;;;;;;;20.41;64.99;100621.91;144992;573;6002;-77
2021/10/12 07:36:21;;;;;;;9.15;6.45;;;;;;;20.29;65.12;100616.78;144993;578;6002;-77
2021/10/12 07:38:51;;;;;;;6.57;4.45;;;;;;;20.20;64.93;100611.62;144993;662;6002;-76
2021/10/12 07:41:17;;;;;;;3.75;2.47;;;;;;;20.21;63.61;100614.25;144993;593;6002;-80
2021/10/12 07:43:44;;;;;;;4.35;2.65;;;;;;;20.19;64.58;100616.03;144993;616;6002;-78
2021/10/12 07:46:11;;;;;;;3.20;1.70;;;;;;;20.23;64.14;100623.00;144993;624;6002;-81
2021/10/12 07:48:38;;;;;;;4.12;1.70;;;;;;;20.25;64.13;100618.59;144993;615;6002;-79
2021/10/12 07:51:05;;;;;;;2.60;1.65;;;;;;;20.41;64.18;100621.91;144993;572;6002;-78
2021/10/12 07:53:34;;;;;;;3.12;1.77;;;;;;;20.67;64.42;100617.25;144993;567;6002;-79
2021/10/12 07:56:03;;;;;;;3.95;1.50;;;;;;;20.91;64.07;100619.50;144993;581;6002;-79
2021/10/12 07:58:30;;;;;;;3.03;1.40;;;;;;;21.24;61.83;100625.19;144994;584;5002;-77
2021/10/12 08:00:56;;;;;;;3.25;1.50;;;;;;;21.64;63.48;100628.97;144994;617;5002;-79
2021/10/12 08:03:24;;;;;;;3.55;2.47;;;;;;;22.08;63.35;100624.66;144994;615;5002;-78
2021/10/12 08:05:50;;;;;;;3.85;2.50;;;;;;;22.44;60.29;100624.81;144994;565;5002;-78
2021/10/12 08:08:17;;;;;;;3.30;2.10;;;;;;;22.74;56.36;100628.59;144993;580;5002;-80
2021/10/12 08:10:44;;;;;;;3.15;1.90;;;;;;;22.89;61.48;100634.44;144994;586;5002;-76
2021/10/12 08:13:15;;;;;;;1.85;1.55;;;;;;;22.91;61.86;100643.22;144994;594;5002;-76
2021/10/12 08:15:46;;;;;;;1.92;1.48;;;;;;;22.91;60.92;100643.22;144994;600;5002;-78
2021/10/12 08:18:13;;;;;;;3.42;1.45;;;;;;;23.00;55.61;100633.31;144994;585;5002;-80
2021/10/12 08:20:41;;;;;;;1.00;0.70;;;;;;;23.15;61.48;100632.09;144994;578;5002;-79
2021/10/12 08:23:08;;;;;;;0.80;0.60;;;;;;;23.38;61.06;100635.97;144993;567;5002;-76
2021/10/12 08:25:35;;;;;;;1.73;0.73;;;;;;;23.66;60.12;100633.47;144994;580;5002;-79
2021/10/12 08:28:02;;;;;;;2.33;0.62;;;;;;;23.72;57.73;100624.53;144994;583;5002;-76
2021/10/12 08:30:32;;;;;;;0.60;0.60;;;;;;;23.88;60.66;100636.47;144994;582;5002;-78
2021/10/12 08:32:59;;;;;;;0.75;0.75;;;;;;;23.95;60.27;100633.66;144994;623;5002;-75
2021/10/12 08:35:25;;;;;;;1.70;1.15;;;;;;;24.06;60.10;100634.25;144994;565;5002;-80
2021/10/12 08:37:53;;;;;;;3.55;2.08;;;;;;;23.88;59.50;100632.97;144994;572;5002;-77
2021/10/12 08:40:21;;;;;;;4.87;1.15;;;;;;;23.59;53.39;100625.72;144994;610;5002;-77
2021/10/12 08:42:54;;;;;;;1.67;1.00;;;;;;;23.35;54.40;100622.78;144994;578;5002;-77
2021/10/12 08:45:23;;;;;;;3.58;0.73;;;;;;;23.36;51.36;100612.16;144994;576;5002;-80
2021/10/12 08:47:51;;;;;;;1.17;0.77;;;;;;;23.45;57.27;100620.78;144994;574;5002;-80
2021/10/12 08:50:24;;;;;;;0.85;0.85;;;;;;;23.64;57.99;100608.81;144994;594;5002;-77
2021/10/12 08:52:51;;;;;;;1.80;0.77;;;;;;;23.71;46.16;100596.28;144994;589;5002;-75
2021/10/12 08:55:18;;;;;;;1.10;0.88;;;;;;;23.80;46.24;100597.78;144993;646;5002;-78
2021/10/12 08:57:47;;;;;;;1.35;0.50;;;;;;;23.95;48.05;100604.50;144994;626;5002;-80
2021/10/12 09:00:16;;;;;;;2.28;1.75;;;;;;;24.18;57.42;100612.69;144994;575;5002;-79
2021/10/12 09:03:29;;;;;;;1.48;0.80;;;;;;;24.45;57.15;100607.50;144994;577;5002;-80
2021/10/12 09:06:02;;;;;;;2.75;0.73;;;;;;;24.65;56.97;100606.06;144994;583;5004;-81
2021/10/12 09:08:35;;;;;;;2.42;1.00;;;;;;;24.81;56.51;100609.97;144994;572;5004;-80
2021/10/12 09:11:04;;;;;;;1.50;0.70;;;;;;;24.90;55.45;100599.06;144994;578;5004;-80
2021/10/12 09:13:44;;;;;;;1.35;0.60;;;;;;;24.93;48.98;100583.03;144994;668;5004;-78
2021/10/12 09:16:14;;;;;;;0.65;0.40;;;;;;;24.77;54.53;100581.78;144994;569;5004;-80
2021/10/12 09:18:53;;;;;;;1.17;0.30;;;;;;;24.54;53.60;100583.31;144994;589;5004;-77
2021/10/12 09:21:29;;;;;;;2.40;0.50;;;;;;;24.59;56.15;100583.22;144994;564;5017;-78
2021/10/12 09:24:19;;;;;;;1.37;0.43;;;;;;;24.79;55.31;100566.69;144994;679;5004;-78
2021/10/12 09:27:04;;;;;;;1.67;1.10;;;;;;;24.84;49.55;100555.91;144994;720;5004;-80
2021/10/12 09:29:41;;;;;;;2.12;1.85;;;;;;;24.80;46.40;100547.16;144993;597;5004;-78
2021/10/12 09:32:09;;;;;;;3.58;2.60;;;;;;;24.91;52.82;100541.50;144994;911;5002;-79
2021/10/12 09:34:41;;;;;;;4.55;3.08;;;;;;;24.96;52.14;100543.13;144994;893;5002;-78
2021/10/12 09:37:09;;;;;;;8.30;6.62;;;;;;;25.11;54.07;100531.09;144994;564;5002;-77
2021/10/12 09:39:49;;;;;;;9.45;7.65;;;;;;;25.29;53.52;100531.44;144994;563;5002;-78
2021/10/12 09:42:18;;;;;;;8.40;6.87;;;;;;;25.39;53.10;100531.97;144994;581;5002;-77
2021/10/12 09:44:59;;;;;;;2.97;1.80;;;;;;;25.46;53.05;100529.06;144994;570;5002;-81
2021/10/12 09:47:29;;;;;;;2.62;0.62;;;;;;;25.40;51.82;100525.75;144994;723;5002;-77
2021/10/12 09:50:11;;;;;;;3.83;2.60;;;;;;;25.34;52.44;100521.50;144994;911;5002;-78
2021/10/12 09:52:42;;;;;;;1.30;1.20;;;;;;;25.29;50.24;100518.16;144994;910;5002;-82
2021/10/12 09:55:09;;;;;;;1.60;1.40;;;;;;;25.40;51.72;100523.09;144994;888;5002;-78
2021/10/12 09:57:38;;;;;;;1.70;1.40;;;;;;;25.47;51.25;100514.84;144994;590;5002;-75
2021/10/12 10:00:09;;;;;;;0.50;0.45;;;;;;;25.38;46.77;100514.31;144994;749;5002;-80
2021/10/12 10:02:38;;;;;;;2.55;0.75;;;;;;;25.43;51.06;100518.53;144994;575;5002;-79
2021/10/12 10:05:06;;;;;;;0.50;0.50;;;;;;;25.55;50.70;100521.66;144994;911;5002;-78
2021/10/12 10:07:42;;;;;;;1.37;0.60;;;;;;;25.59;50.19;100510.88;144994;658;5002;-78
2021/10/12 10:10:09;;;;;;;2.25;0.60;;;;;;;25.63;50.65;100511.66;144994;640;5002;-74
2021/10/12 10:12:37;;;;;;;1.10;0.70;;;;;;;25.65;48.53;100501.84;144994;579;5002;-78
2021/10/12 10:15:08;;;;;;;1.65;1.05;;;;;;;25.66;49.43;100509.75;144994;758;5002;-79
2021/10/12 10:17:36;;;;;;;2.28;1.20;;;;;;;25.68;49.97;100505.25;144994;576;5002;-78
2021/10/12 10:20:07;;;;;;;0.90;0.80;;;;;;;25.65;49.75;100510.66;144994;595;5002;-77
2021/10/12 10:22:41;;;;;;;0.65;0.65;;;;;;;25.60;49.16;100514.44;144994;572;5002;-79
2021/10/12 10:25:27;;;;;;;2.28;1.87;;;;;;;25.34;50.04;100509.09;144994;585;5002;-75
2021/10/12 10:28:17;;;;;;;0.95;0.95;;;;;;;25.22;47.96;100501.53;144994;909;5004;-80
2021/10/12 10:30:51;;;;;;;1.55;0.98;;;;;;;25.00;49.93;100504.03;144994;595;5002;-79
2021/10/12 10:33:29;;;;;;;2.53;1.30;;;;;;;24.78;49.59;100503.88;144994;563;5002;-79
2021/10/12 10:36:02;;;;;;;0.98;0.70;;;;;;;24.66;50.28;100504.28;144994;856;5002;-79
2021/10/12 10:38:45;;;;;;;8.38;5.97;;;;;;;24.23;47.25;100495.88;144994;912;5002;-81
2021/10/12 10:41:35;;;;;;;10.23;8.65;;;;;;;24.04;50.21;100503.50;144994;573;5002;-80
2021/10/12 10:44:02;;;;;;;5.30;4.25;;;;;;;23.95;44.86;100490.50;144994;587;5004;-80
2021/10/12 10:46:47;;;;;;;9.57;7.35;;;;;;;23.81;49.34;100493.53;144994;583;5004;-79
2021/10/12 10:49:23;;;;;;;2.95;1.92;;;;;;;23.69;49.31;100486.81;144994;737;5002;-80
2021/10/12 10:52:04;;;;;;;3.65;2.58;;;;;;;23.44;50.35;100476.88;144994;913;5002;-79
2021/10/12 10:55:01;;;;;;;3.20;1.92;;;;;;;23.35;44.92;100474.47;144994;586;5002;-80
2021/10/12 10:57:27;;;;;;;3.37;0.90;;;;;;;23.46;49.77;100475.03;144994;587;5004;-78
2021/10/12 11:00:23;;;;;;;1.80;1.12;;;;;;;23.64;50.03;100475.44;144994;689;5004;-80
2021/10/12 11:02:50;;;;;;;3.87;1.83;;;;;;;23.76;46.35;100468.94;144994;668;5004;-79
2021/10/12 11:05:45;;;;;;;3.00;1.90;;;;;;;24.03;50.05;100468.16;144994;595;5004;-80
2021/10/12 11:08:23;;;;;;;2.10;1.00;;;;;;;24.06;48.22;100465.41;144993;567;5004;-80
2021/10/12 11:10:57;;;;;;;2.80;1.05;;;;;;;23.99;46.88;100470.94;144994;597;5002;-81
2021/10/12 11:13:34;;;;;;;4.35;3.35;;;;;;;23.83;47.24;100474.06;144994;585;5002;-81
2021/10/12 11:16:11;;;;;;;1.75;1.37;;;;;;;23.86;44.17;100463.38;144994;671;5002;-78
2021/10/12 11:18:39;;;;;;;2.92;1.00;;;;;;;23.81;47.92;100457.28;144994;564;5003;-79
2021/10/12 11:21:14;;;;;;;2.97;1.23;;;;;;;23.70;43.48;100451.41;144994;672;5002;-80
2021/10/12 11:23:48;;;;;;;3.00;0.73;;;;;;;23.58;47.60;100463.25;144994;579;5002;-80
2021/10/12 11:26:20;;;;;;;1.80;0.60;;;;;;;23.42;42.14;100457.50;144994;572;5003;-79
2021/10/12 11:28:49;;;;;;;3.15;0.50;;;;;;;23.42;48.57;100454.88;144994;630;5002;-79
2021/10/12 11:31:18;;;;;;;1.05;0.60;;;;;;;23.44;46.63;100458.34;144994;597;5002;-80
2021/10/12 11:33:55;;;;;;;1.02;0.57;;;;;;;23.35;48.71;100461.22;144994;619;5002;-81
2021/10/12 11:36:27;;;;;;;1.40;0.70;;;;;;;23.13;44.34;100459.19;144994;569;5004;-79
2021/10/12 11:39:02;;;;;;;1.15;0.60;;;;;;;22.98;42.26;100455.09;144994;615;5004;-80
2021/10/12 11:41:39;;;;;;;1.23;0.40;;;;;;;22.94;49.44;100458.75;144994;591;5004;-79
2021/10/12 11:44:21;;;;;;;1.55;0.70;;;;;;;22.76;46.82;100457.41;144994;597;5004;-80